createdAt,value
2023-03-22T00:01:02.520Z,76.20
2023-03-22T00:04:18.704Z,77.45
2023-03-22T00:07:35.129Z,74.15
2023-03-22T00:10:52.047Z,77.23
2023-03-22T00:14:08.197Z,73.08
2023-03-22T00:17:26.050Z,77.70
2023-03-22T00:20:42.320Z,71.50
2023-03-22T00:23:58.349Z,76.68
2023-03-22T00:27:15.047Z,85.48
2023-03-22T00:30:31.214Z,79.53
2023-03-22T00:33:47.297Z,88.03
2023-03-22T00:37:03.291Z,87.98
2023-03-22T00:40:22.466Z,85.13
2023-03-22T00:43:38.562Z,72.98
2023-03-22T00:46:54.567Z,73.90
2023-03-22T00:50:12.742Z,74.18
2023-03-22T00:53:29.951Z,70.00
2023-03-22T00:56:46.301Z,74.45
2023-03-22T01:00:05.580Z,68.15
2023-03-22T01:03:22.692Z,61.58
2023-03-22T01:06:39.858Z,67.10
2023-03-22T01:09:56.193Z,76.93
2023-03-22T01:13:13.161Z,79.40
2023-03-22T01:16:29.280Z,74.65
2023-03-22T01:19:46.165Z,71.58
2023-03-22T01:23:02.389Z,71.28
2023-03-22T01:26:18.837Z,67.88
2023-03-22T01:29:36.619Z,66.53
2023-03-22T01:32:52.828Z,66.65
2023-03-22T01:36:09.165Z,71.25
2023-03-22T01:39:25.216Z,69.08
2023-03-22T01:42:43.100Z,67.10
2023-03-22T01:46:01.628Z,66.25
2023-03-22T01:49:22.747Z,70.65
2023-03-22T01:52:39.613Z,69.43
2023-03-22T01:55:59.462Z,76.73
2023-03-22T01:59:23.532Z,81.60
2023-03-22T02:03:01.446Z,71.98
2023-03-22T02:06:19.428Z,64.95
2023-03-22T02:09:39.985Z,71.03
2023-03-22T02:13:11.627Z,71.60
2023-03-22T02:16:39.493Z,74.60
2023-03-22T02:20:49.723Z,76.80
2023-03-22T02:24:43.976Z,79.83
2023-03-22T02:28:22.698Z,74.28
2023-03-22T02:32:18.836Z,70.77
2023-03-22T02:35:53.941Z,65.80
2023-03-22T02:39:32.768Z,66.23
2023-03-22T02:42:59.182Z,67.90
2023-03-22T02:46:19.957Z,69.85
2023-03-22T02:49:41.642Z,62.28
2023-03-22T02:53:01.504Z,69.33
2023-03-22T02:56:22.364Z,63.68
2023-03-22T02:59:41.819Z,67.45
2023-03-22T03:06:20.928Z,67.43
2023-03-22T03:09:39.475Z,143.75
2023-03-22T03:12:55.765Z,176.28
2023-03-22T03:16:18.417Z,77.15
2023-03-22T03:19:40.541Z,153.08
2023-03-22T03:23:08.051Z,226.53
2023-03-22T03:26:30.362Z,118.25
2023-03-22T03:29:53.616Z,129.23
2023-03-22T03:33:14.654Z,151.33
2023-03-22T03:36:33.076Z,156.20
2023-03-22T03:39:54.317Z,109.13
2023-03-22T03:43:12.453Z,124.43
2023-03-22T03:46:29.964Z,99.25
2023-03-22T03:49:47.121Z,115.58
2023-03-22T03:53:04.093Z,154.43
2023-03-22T03:56:20.449Z,150.28
2023-03-22T03:59:36.964Z,213.03
2023-03-22T04:02:55.236Z,187.15
2023-03-22T04:06:29.552Z,166.45
2023-03-22T04:09:48.752Z,79.13
2023-03-22T04:16:20.987Z,99.48
2023-03-22T04:19:37.391Z,116.78
2023-03-22T04:22:54.824Z,117.98
2023-03-22T04:26:12.756Z,118.33
2023-03-22T04:29:32.990Z,126.93
2023-03-22T04:32:52.056Z,103.50
2023-03-22T04:36:11.055Z,136.83
2023-03-22T04:39:31.707Z,103.05
2023-03-22T04:42:50.369Z,92.38
2023-03-22T04:46:13.355Z,110.50
2023-03-22T04:49:38.113Z,108.73
2023-03-22T04:52:54.334Z,91.85
2023-03-22T04:56:10.845Z,120.85
2023-03-22T04:59:27.472Z,73.93
2023-03-22T05:02:44.456Z,73.45
2023-03-22T05:06:08.630Z,88.97
2023-03-22T05:09:29.869Z,125.38
2023-03-22T05:12:46.235Z,104.68
2023-03-22T05:16:06.887Z,126.90
2023-03-22T05:19:25.195Z,114.08
2023-03-22T05:22:41.570Z,89.28
2023-03-22T05:26:02.785Z,130.35
2023-03-22T05:29:20.701Z,103.68
2023-03-22T05:32:48.486Z,111.45
2023-03-22T05:36:09.870Z,101.73
2023-03-22T05:39:27.507Z,75.55
2023-03-22T05:42:44.422Z,56.70
2023-03-22T05:46:14.487Z,104.43
2023-03-22T05:49:32.525Z,48.58
2023-03-22T05:52:50.070Z,67.40
2023-03-22T05:56:20.948Z,58.20
2023-03-22T05:59:38.258Z,55.03
2023-03-22T06:02:57.495Z,51.93
2023-03-22T06:06:16.740Z,44.60
2023-03-22T06:09:34.957Z,41.10
2023-03-22T06:12:52.756Z,52.50
2023-03-22T06:16:15.371Z,46.78
2023-03-22T06:22:48.835Z,44.35
2023-03-22T06:26:05.763Z,42.70
2023-03-22T06:29:23.165Z,39.38
2023-03-22T06:32:40.677Z,40.55
2023-03-22T06:35:57.093Z,38.88
2023-03-22T06:39:15.209Z,41.88
2023-03-22T06:42:34.469Z,44.38
2023-03-22T06:45:53.270Z,42.18
2023-03-22T06:49:11.425Z,44.73
2023-03-22T06:52:27.836Z,41.03
2023-03-22T06:55:44.044Z,43.40
2023-03-22T06:59:02.510Z,44.10
2023-03-22T07:02:21.961Z,41.50
2023-03-22T07:05:46.143Z,38.80
2023-03-22T07:09:02.647Z,37.90
2023-03-22T07:12:20.484Z,38.90
2023-03-22T07:15:37.351Z,47.18
2023-03-22T07:18:56.786Z,43.78
2023-03-22T07:22:16.254Z,43.70
2023-03-22T07:25:34.477Z,41.40
2023-03-22T07:29:01.168Z,46.60
2023-03-22T07:32:19.163Z,42.98
2023-03-22T07:35:40.602Z,43.43
2023-03-22T07:38:58.403Z,41.20
2023-03-22T07:42:14.728Z,42.63
2023-03-22T07:45:31.464Z,39.53
2023-03-22T07:48:58.956Z,41.40
2023-03-22T08:07:44.200Z,38.18
2023-03-22T08:14:55.020Z,34.35
2023-03-22T08:18:13.387Z,36.80
2023-03-22T08:21:30.843Z,33.68
2023-03-22T08:24:48.999Z,32.68
2023-03-22T08:28:09.495Z,30.90
2023-03-22T08:31:27.285Z,30.18
2023-03-22T08:34:46.719Z,45.83
2023-03-22T08:38:05.253Z,29.65
2023-03-22T08:41:24.441Z,30.00
2023-03-22T08:44:41.071Z,32.10
2023-03-22T08:47:57.887Z,29.53
2023-03-22T08:51:18.924Z,28.93
2023-03-22T08:54:37.291Z,29.28
2023-03-22T08:57:54.526Z,31.28
2023-03-22T09:01:23.388Z,29.25
2023-03-22T09:04:42.985Z,28.10
2023-03-22T09:08:07.657Z,26.73
2023-03-22T09:11:27.466Z,27.23
2023-03-22T09:14:44.119Z,28.15
2023-03-22T09:18:03.292Z,26.40
2023-03-22T09:21:20.318Z,28.23
2023-03-22T09:24:40.670Z,27.95
2023-03-22T09:27:59.448Z,29.23
2023-03-22T09:31:20.413Z,27.35
2023-03-22T09:34:37.506Z,28.65
2023-03-22T09:37:56.831Z,37.18
2023-03-22T09:41:18.931Z,42.35
2023-03-22T09:44:39.780Z,33.70
2023-03-22T09:48:02.186Z,57.60
2023-03-22T09:51:31.646Z,31.10
2023-03-22T09:54:53.206Z,29.70
2023-03-22T09:58:15.554Z,28.90
2023-03-22T10:01:38.212Z,35.48
2023-03-22T10:05:02.247Z,34.93
2023-03-22T10:08:47.675Z,29.75
2023-03-22T10:12:09.719Z,27.58
2023-03-22T10:15:32.388Z,28.23
2023-03-22T10:18:52.507Z,31.03
2023-03-22T10:22:12.196Z,30.00
2023-03-22T10:25:33.916Z,24.25
2023-03-22T10:28:53.712Z,25.53
2023-03-22T10:32:21.191Z,23.20
2023-03-22T10:35:38.973Z,24.68
2023-03-22T10:39:00.433Z,20.25
2023-03-22T10:42:20.742Z,19.95
2023-03-22T10:45:40.159Z,23.18
2023-03-22T10:48:59.691Z,74.75
2023-03-22T10:52:26.695Z,29.33
2023-03-22T10:55:48.518Z,22.58
2023-03-22T10:59:05.524Z,19.50
2023-03-22T11:02:33.520Z,18.40
2023-03-22T11:05:50.141Z,17.77
2023-03-22T11:09:10.082Z,17.68
2023-03-22T11:12:26.849Z,18.65
2023-03-22T11:15:46.545Z,14.25
2023-03-22T11:19:06.903Z,12.35
2023-03-22T11:22:32.294Z,13.38
2023-03-22T11:25:55.135Z,14.23
2023-03-22T11:29:22.396Z,14.55
2023-03-22T11:32:42.814Z,14.30
2023-03-22T11:36:05.014Z,12.38
2023-03-22T11:39:22.617Z,12.48
2023-03-22T11:42:41.115Z,15.33
2023-03-22T11:46:01.064Z,111.95
2023-03-22T11:49:22.717Z,51.68
2023-03-22T11:52:38.970Z,20.78
2023-03-22T11:56:00.705Z,14.03
2023-03-22T11:59:21.009Z,12.93
2023-03-22T12:02:40.636Z,11.55
2023-03-22T12:06:01.469Z,11.33
2023-03-22T12:09:31.047Z,11.88
2023-03-22T12:12:51.597Z,13.28
2023-03-22T12:16:11.511Z,13.80
2023-03-22T12:19:47.831Z,12.20
2023-03-22T12:23:04.697Z,9.75
2023-03-22T12:26:27.142Z,9.00
2023-03-22T12:29:44.721Z,12.03
2023-03-22T12:33:07.236Z,16.10
2023-03-22T12:36:28.390Z,10.73
2023-03-22T12:39:51.653Z,10.48
2023-03-22T12:43:18.242Z,12.48
2023-03-22T12:46:39.482Z,131.28
2023-03-22T12:50:02.318Z,31.68
2023-03-22T12:53:23.370Z,14.08
2023-03-22T12:56:45.292Z,7.88
2023-03-22T13:00:06.743Z,17.20
2023-03-22T13:03:36.038Z,48.75
2023-03-22T13:07:16.354Z,14.80
2023-03-22T13:11:14.069Z,7.28
2023-03-22T13:15:05.043Z,5.18
2023-03-22T13:19:02.742Z,5.90
2023-03-22T13:22:33.990Z,4.25
2023-03-22T13:26:06.764Z,5.28
2023-03-22T13:29:30.672Z,3.08
2023-03-22T13:32:53.871Z,5.03
2023-03-22T13:36:16.441Z,4.78
2023-03-22T13:39:35.306Z,4.63
2023-03-22T13:42:52.190Z,5.03
2023-03-22T13:46:31.613Z,5.88
2023-03-22T13:50:00.755Z,5.25
2023-03-22T13:53:28.558Z,5.05
2023-03-22T13:57:00.926Z,4.85
2023-03-22T14:00:45.798Z,5.30
2023-03-22T14:04:05.167Z,6.15
2023-03-22T14:07:28.494Z,5.25
2023-03-22T14:10:49.105Z,5.80
2023-03-22T14:14:11.098Z,4.80
2023-03-22T14:17:37.314Z,3.83
2023-03-22T14:20:56.659Z,4.00
2023-03-22T14:47:27.191Z,132.80
2023-03-22T14:50:51.691Z,27.88
2023-03-22T14:54:15.361Z,4.65
2023-03-22T14:57:36.887Z,4.88
2023-03-22T15:00:53.145Z,4.58
2023-03-22T15:04:14.692Z,4.08
2023-03-22T15:07:31.417Z,6.73
2023-03-22T15:10:50.872Z,3.90
2023-03-22T15:17:24.308Z,4.53
2023-03-22T15:20:44.830Z,7.75
2023-03-22T15:24:06.112Z,7.00
2023-03-22T15:27:25.201Z,4.68
2023-03-22T15:30:42.572Z,6.45
2023-03-22T15:34:01.886Z,4.88
2023-03-22T15:37:27.855Z,4.65
2023-03-22T15:40:52.253Z,5.48
2023-03-22T15:44:24.486Z,8.88
2023-03-22T15:47:53.617Z,5.65
2023-03-22T15:51:10.358Z,5.55
2023-03-22T15:54:31.479Z,6.00
2023-03-22T15:57:53.646Z,11.88
2023-03-22T16:01:24.073Z,8.68
2023-03-22T16:04:44.135Z,6.88
2023-03-22T16:08:04.010Z,73.93
2023-03-22T16:14:40.351Z,16.00
2023-03-22T16:17:58.005Z,9.55
2023-03-22T16:21:18.653Z,8.03
2023-03-22T16:24:35.171Z,6.55
2023-03-22T16:27:52.344Z,8.08
2023-03-22T16:31:13.400Z,13.35
2023-03-22T16:34:31.332Z,14.68
2023-03-22T16:37:57.610Z,10.18
2023-03-22T16:41:23.608Z,9.03
2023-03-22T16:44:47.411Z,12.30
2023-03-22T16:48:04.967Z,10.93
2023-03-22T16:51:34.476Z,13.25
2023-03-22T16:54:54.210Z,15.85
2023-03-22T16:58:13.074Z,18.63
2023-03-22T17:01:30.751Z,13.90
2023-03-22T17:04:47.413Z,16.55
2023-03-22T17:08:05.756Z,17.30
2023-03-22T17:11:30.476Z,13.83
2023-03-22T17:14:47.650Z,8.03
2023-03-22T17:18:05.433Z,10.15
2023-03-22T17:21:25.382Z,15.20
2023-03-22T17:24:43.291Z,14.48
2023-03-22T17:28:02.100Z,20.33
2023-03-22T17:31:22.814Z,9.70
2023-03-22T17:34:40.363Z,15.25
2023-03-22T17:41:14.938Z,17.50
2023-03-22T17:44:32.299Z,11.35
2023-03-22T17:47:49.399Z,9.98
2023-03-22T17:51:06.352Z,16.88
2023-03-22T17:54:56.957Z,17.80
2023-03-22T17:58:21.326Z,14.38
2023-03-22T18:00:59.818Z,13.98
2023-03-22T18:04:17.318Z,14.48
2023-03-22T18:07:33.879Z,14.58
2023-03-22T18:10:50.689Z,17.43
2023-03-22T18:14:21.181Z,17.45
2023-03-22T18:17:26.361Z,16.50
2023-03-22T18:24:01.638Z,19.03
2023-03-22T18:27:18.409Z,19.13
2023-03-22T18:30:35.642Z,18.25
2023-03-22T18:33:54.656Z,26.93
2023-03-22T18:37:14.112Z,19.13
2023-03-22T18:41:03.821Z,21.63
2023-03-22T18:43:50.642Z,19.90
2023-03-22T18:47:07.401Z,19.75
2023-03-22T18:50:24.708Z,17.98
2023-03-22T18:53:44.144Z,19.48
2023-03-22T18:57:01.305Z,16.88
2023-03-22T19:00:21.977Z,17.48
2023-03-22T19:03:38.570Z,19.43
2023-03-22T19:06:58.272Z,17.35
2023-03-22T19:10:18.586Z,17.13
2023-03-22T19:13:40.178Z,18.00
2023-03-22T19:16:54.001Z,19.00
2023-03-22T19:20:14.581Z,19.95
2023-03-22T19:23:31.813Z,14.83
2023-03-22T19:26:58.427Z,16.73
2023-03-22T19:30:09.496Z,17.60
2023-03-22T19:33:41.876Z,17.73
2023-03-22T19:36:44.995Z,14.05
2023-03-22T19:40:45.253Z,16.95
2023-03-22T19:43:21.927Z,13.55
2023-03-22T19:46:40.524Z,13.90
2023-03-22T19:49:57.552Z,14.08
2023-03-22T19:53:45.709Z,14.65
2023-03-22T19:56:33.608Z,14.60
2023-03-22T20:00:19.322Z,15.95
2023-03-22T20:03:09.972Z,13.15
2023-03-22T20:06:29.374Z,16.18
2023-03-22T20:13:01.384Z,16.05
2023-03-22T20:16:19.000Z,13.05
2023-03-22T20:19:37.711Z,13.35
2023-03-22T20:22:55.680Z,86.45
2023-03-22T20:26:13.201Z,17.87
2023-03-22T20:29:30.329Z,14.38
2023-03-22T20:32:48.827Z,15.65
2023-03-22T20:36:08.510Z,13.78
2023-03-22T20:39:26.765Z,13.10
2023-03-22T20:42:43.800Z,12.33
2023-03-22T20:46:01.702Z,14.65
2023-03-22T20:49:18.186Z,14.08
2023-03-22T20:52:35.116Z,13.20
2023-03-22T20:55:58.497Z,13.98
2023-03-22T20:59:16.166Z,13.50
2023-03-22T21:02:32.979Z,14.60
2023-03-22T21:05:50.396Z,12.20
2023-03-22T21:09:07.542Z,14.48
2023-03-22T21:12:24.009Z,12.10
2023-03-22T21:15:40.930Z,13.25
2023-03-22T21:18:57.962Z,16.08
2023-03-22T21:22:15.240Z,14.38
2023-03-22T21:25:32.116Z,15.13
2023-03-22T21:28:48.503Z,13.03
2023-03-22T21:32:05.091Z,16.75
2023-03-22T21:35:22.397Z,15.45
2023-03-22T21:38:39.916Z,15.18
2023-03-22T21:41:56.164Z,14.80
2023-03-22T21:45:15.711Z,15.03
2023-03-22T21:48:34.039Z,14.18
2023-03-22T21:51:50.558Z,13.75
2023-03-22T21:55:07.330Z,12.90
2023-03-22T21:58:25.300Z,13.15
2023-03-22T22:01:42.432Z,13.15
2023-03-22T22:04:59.851Z,12.40
2023-03-22T22:08:16.634Z,12.85
2023-03-22T22:11:33.941Z,12.13
2023-03-22T22:14:50.543Z,11.13
2023-03-22T22:18:07.726Z,11.53
2023-03-22T22:21:27.774Z,12.65
2023-03-22T22:24:44.058Z,12.88
2023-03-22T22:28:00.317Z,12.40
2023-03-22T22:31:24.429Z,10.73
2023-03-22T22:34:40.876Z,12.58
2023-03-22T22:37:57.677Z,12.38
2023-03-22T22:41:15.807Z,10.80
2023-03-22T22:44:32.326Z,11.35
2023-03-22T22:47:48.588Z,12.85
2023-03-22T22:51:14.606Z,12.45
2023-03-22T22:54:30.838Z,10.05
2023-03-22T22:57:48.180Z,11.75
2023-03-22T23:01:04.976Z,10.58
2023-03-22T23:04:22.554Z,10.63
2023-03-22T23:07:41.151Z,13.20
2023-03-22T23:11:01.891Z,8.55
2023-03-22T23:14:18.351Z,10.35
2023-03-22T23:17:35.603Z,9.00
2023-03-22T23:20:52.291Z,8.93
2023-03-22T23:24:09.863Z,9.85
2023-03-22T23:27:26.754Z,10.40
2023-03-22T23:30:42.975Z,9.75
2023-03-22T23:34:01.667Z,9.05
2023-03-22T23:37:18.682Z,7.78
2023-03-22T23:40:35.767Z,10.70
2023-03-22T23:43:52.394Z,9.05
2023-03-22T23:47:08.631Z,11.95
2023-03-22T23:50:26.256Z,10.75
2023-03-22T23:53:43.444Z,8.35
2023-03-22T23:56:59.991Z,12.98
